createdAt,value
2019-05-10T00:04:38.210Z,94620.25
2019-05-10T00:07:13.112Z,94627.73
2019-05-10T00:09:40.870Z,94630.97
2019-05-10T00:15:06.597Z,94629.63
2019-05-10T00:17:34.953Z,94628.83
2019-05-10T00:20:03.302Z,94627.52
2019-05-10T00:22:34.941Z,94629.05
2019-05-10T00:25:04.930Z,94638.09
2019-05-10T00:27:31.642Z,94638.95
2019-05-10T00:30:00.001Z,94631.68
2019-05-10T00:35:02.607Z,94642.97
2019-05-10T00:37:30.937Z,94640.45
2019-05-10T00:39:59.290Z,94645.48
2019-05-10T00:42:27.639Z,94636.48
2019-05-10T00:44:56.011Z,94646.45
2019-05-10T00:47:24.345Z,94644.84
2019-05-10T00:52:28.866Z,94646.16
2019-05-10T00:57:32.330Z,94654.21
2019-05-10T01:00:00.677Z,94642.87
2019-05-10T01:02:29.017Z,94651.74
2019-05-10T01:04:57.351Z,94651.24
2019-05-10T01:07:25.707Z,94654.42
2019-05-10T01:09:54.060Z,94654.58
2019-05-10T01:12:23.400Z,94659.48
2019-05-10T01:14:51.729Z,94653.85
2019-05-10T01:17:20.091Z,94657.84
2019-05-10T01:19:48.436Z,94658.42
2019-05-10T01:22:20.998Z,94656.48
2019-05-10T01:24:49.350Z,94649.13
2019-05-10T01:27:17.716Z,94656.00
2019-05-10T01:29:46.054Z,94655.57
2019-05-10T01:32:14.385Z,94661.26
2019-05-10T01:34:43.647Z,94658.97
2019-05-10T01:37:11.993Z,94673.42
2019-05-10T01:39:40.334Z,94670.00
2019-05-10T01:42:08.699Z,94667.34
2019-05-10T01:47:11.273Z,94678.03
2019-05-10T01:49:39.609Z,94677.95
2019-05-10T01:52:07.953Z,94681.09
2019-05-10T01:54:37.254Z,94685.25
2019-05-10T01:57:05.584Z,94689.23
2019-05-10T01:59:33.917Z,94687.73
2019-05-10T02:02:02.259Z,94682.67
2019-05-10T02:04:30.593Z,94690.56
2019-05-10T02:06:58.937Z,94691.57
2019-05-10T02:09:27.267Z,94690.55
2019-05-10T02:11:55.608Z,94693.74
2019-05-10T02:14:23.988Z,94695.06
2019-05-10T02:16:52.317Z,94690.55
2019-05-10T02:19:20.648Z,94695.63
2019-05-10T02:21:48.993Z,94697.67
2019-05-10T02:24:17.324Z,94707.77
2019-05-10T02:26:45.665Z,94703.22
2019-05-10T02:29:13.999Z,94707.61
2019-05-10T02:31:42.342Z,94708.67
2019-05-10T02:34:10.668Z,94713.53
2019-05-10T02:36:39.978Z,94716.30
2019-05-10T02:39:08.311Z,94718.03
2019-05-10T02:41:36.645Z,94720.08
2019-05-10T02:44:05.029Z,94721.35
2019-05-10T02:46:34.338Z,94722.40
2019-05-10T02:49:02.668Z,94723.80
2019-05-10T02:51:31.003Z,94728.70
2019-05-10T02:53:59.332Z,94728.25
2019-05-10T02:56:30.903Z,94726.30
2019-05-10T02:58:56.964Z,94726.66
2019-05-10T03:01:25.324Z,94720.85
2019-05-10T03:03:53.732Z,94720.05
2019-05-10T03:06:21.998Z,94722.66
2019-05-10T03:08:51.151Z,94721.63
2019-05-10T03:11:20.423Z,94721.88
2019-05-10T03:13:49.574Z,94718.32
2019-05-10T03:18:55.088Z,94711.28
2019-05-10T03:21:23.427Z,94723.32
2019-05-10T03:26:27.010Z,94721.94
2019-05-10T03:28:57.317Z,94718.64
2019-05-10T03:31:25.671Z,94711.07
2019-05-10T03:33:57.231Z,94719.36
2019-05-10T03:36:22.359Z,94712.97
2019-05-10T03:38:50.676Z,94709.81
2019-05-10T03:43:56.286Z,94724.08
2019-05-10T03:46:24.600Z,94730.83
2019-05-10T03:51:27.197Z,94732.91
2019-05-10T03:53:56.508Z,94736.14
2019-05-10T03:56:24.854Z,94741.46
2019-05-10T03:58:53.212Z,94742.73
2019-05-10T04:01:21.530Z,94748.70
2019-05-10T04:06:25.349Z,94759.64
2019-05-10T04:08:53.695Z,94753.76
2019-05-10T04:13:56.257Z,94755.34
2019-05-10T04:16:24.612Z,94757.63
2019-05-10T04:18:52.941Z,94757.56
2019-05-10T04:21:21.286Z,94762.78
2019-05-10T04:23:49.617Z,94767.70
2019-05-10T04:28:52.217Z,94768.50
2019-05-10T04:31:20.560Z,94765.00
2019-05-10T04:33:48.898Z,94761.39
2019-05-10T04:36:17.250Z,94759.66
2019-05-10T04:38:47.483Z,94758.52
2019-05-10T04:41:15.807Z,94767.11
2019-05-10T04:43:44.143Z,94766.09
2019-05-10T04:46:12.587Z,94767.31
2019-05-10T04:48:40.800Z,94770.91
2019-05-10T04:51:10.130Z,94774.55
2019-05-10T04:53:38.612Z,94775.52
2019-05-10T04:56:07.880Z,94777.58
2019-05-10T04:58:36.230Z,94779.94
2019-05-10T05:01:04.561Z,94778.23
2019-05-10T05:03:32.927Z,94777.96
2019-05-10T05:06:01.266Z,94781.00
2019-05-10T05:08:29.628Z,94782.66
2019-05-10T05:10:57.995Z,94778.59
2019-05-10T05:13:26.347Z,94781.37
2019-05-10T05:15:54.689Z,94784.89
2019-05-10T05:18:23.037Z,94791.70
2019-05-10T05:20:51.385Z,94791.05
2019-05-10T05:23:19.738Z,94791.23
2019-05-10T05:28:23.367Z,94798.24
2019-05-10T05:33:24.898Z,94807.86
2019-05-10T05:35:53.248Z,94811.58
2019-05-10T05:38:21.597Z,94809.98
2019-05-10T05:40:50.880Z,94810.85
2019-05-10T05:43:19.240Z,94811.23
2019-05-10T05:45:47.587Z,94816.20
2019-05-10T05:48:20.782Z,94820.54
2019-05-10T05:50:44.344Z,94825.25
2019-05-10T05:53:12.688Z,94825.42
2019-05-10T05:55:41.040Z,94827.70
2019-05-10T05:58:25.381Z,94831.24
2019-05-10T06:00:44.884Z,94830.97
2019-05-10T06:03:08.025Z,94835.75
2019-05-10T06:05:37.256Z,94836.17
2019-05-10T06:08:21.845Z,94835.83
2019-05-10T06:10:38.854Z,94840.98
2019-05-10T06:13:10.933Z,94842.02
2019-05-10T06:15:42.882Z,94842.60
2019-05-10T06:18:18.597Z,94846.07
2019-05-10T06:23:29.124Z,94857.72
2019-05-10T06:25:53.554Z,94857.25
2019-05-10T06:28:26.802Z,94857.83
2019-05-10T06:30:50.241Z,94858.83
2019-05-10T06:33:18.596Z,94863.58
2019-05-10T06:38:21.217Z,94864.94
2019-05-10T06:40:51.586Z,94864.59
2019-05-10T06:43:19.840Z,94864.82
2019-05-10T06:45:52.581Z,94866.30
2019-05-10T06:48:26.128Z,94872.51
2019-05-10T06:53:19.082Z,94882.56
2019-05-10T06:55:47.429Z,94879.44
2019-05-10T06:58:15.777Z,94881.17
2019-05-10T07:00:45.602Z,94878.81
2019-05-10T07:05:47.914Z,94887.14
2019-05-10T07:08:20.297Z,94885.47
2019-05-10T07:10:44.604Z,94897.09
2019-05-10T07:13:17.608Z,94891.42
2019-05-10T07:15:45.970Z,94897.09
2019-05-10T07:18:16.859Z,94906.56
2019-05-10T07:20:46.246Z,94897.22
2019-05-10T07:23:14.637Z,94903.83
2019-05-10T07:25:44.016Z,94902.81
2019-05-10T07:28:16.341Z,94906.45
2019-05-10T07:30:41.526Z,94905.08
2019-05-10T07:33:08.076Z,94910.48
2019-05-10T07:35:37.276Z,94912.59
2019-05-10T07:38:04.775Z,94911.84
2019-05-10T07:40:34.075Z,94916.13
2019-05-10T07:43:02.441Z,94915.73
2019-05-10T07:45:32.785Z,94921.95
2019-05-10T07:48:08.301Z,94919.88
2019-05-10T07:50:32.408Z,94919.77
2019-05-10T07:53:04.520Z,94920.16
2019-05-10T07:55:33.011Z,94923.30
2019-05-10T07:58:04.964Z,94925.48
2019-05-10T08:00:37.687Z,94928.69
2019-05-10T08:05:35.211Z,94931.08
2019-05-10T08:08:03.672Z,94930.61
2019-05-10T08:13:08.301Z,94934.38
2019-05-10T08:15:35.600Z,94923.31
2019-05-10T08:18:03.940Z,94922.81
2019-05-10T08:20:46.614Z,94918.33
2019-05-10T08:23:02.855Z,94922.88
2019-05-10T08:25:36.334Z,94919.55
2019-05-10T08:28:02.422Z,94919.19
2019-05-10T08:30:34.311Z,94914.83
2019-05-10T08:35:43.419Z,94915.22
2019-05-10T08:38:07.341Z,94917.28
2019-05-10T08:40:37.992Z,94916.82
2019-05-10T08:43:08.421Z,94920.45
2019-05-10T08:45:32.577Z,94916.99
2019-05-10T08:48:06.901Z,94918.39
2019-05-10T08:53:10.524Z,94922.33
2019-05-10T08:55:32.126Z,94918.75
2019-05-10T09:00:49.691Z,94921.88
2019-05-10T09:03:09.431Z,94924.16
2019-05-10T09:05:35.918Z,94913.84
2019-05-10T09:08:05.828Z,94918.71
2019-05-10T09:10:32.764Z,94922.63
2019-05-10T09:13:03.281Z,94924.59
2019-05-10T09:15:29.459Z,94926.65
2019-05-10T09:18:07.379Z,94928.12
2019-05-10T09:20:31.799Z,94931.54
2019-05-10T09:23:02.194Z,94934.38
2019-05-10T09:25:30.901Z,94928.31
2019-05-10T09:28:04.526Z,94926.90
2019-05-10T09:33:08.679Z,94933.41
2019-05-10T09:35:33.399Z,94935.95
2019-05-10T09:38:03.663Z,94936.17
2019-05-10T09:43:09.830Z,94945.59
2019-05-10T09:45:37.678Z,94943.67
2019-05-10T09:48:06.049Z,94942.70
2019-05-10T09:50:44.104Z,94943.92
2019-05-10T09:53:09.120Z,94942.56
2019-05-10T09:55:36.955Z,94944.48
2019-05-10T09:58:04.270Z,94936.94
2019-05-10T10:00:32.623Z,94940.52
2019-05-10T10:03:03.930Z,94942.81
2019-05-10T10:05:39.867Z,94944.39
2019-05-10T10:08:09.225Z,94943.42
2019-05-10T10:10:36.978Z,94942.65
2019-05-10T10:15:39.262Z,94949.47
2019-05-10T10:18:07.655Z,94947.95
2019-05-10T10:20:43.397Z,94948.41
2019-05-10T10:23:04.389Z,94949.63
2019-05-10T10:25:35.185Z,94954.33
2019-05-10T10:28:08.258Z,94950.38
2019-05-10T10:30:33.344Z,94952.41
2019-05-10T10:35:38.158Z,94950.40
2019-05-10T10:38:08.020Z,94959.48
2019-05-10T10:40:44.194Z,94967.11
2019-05-10T10:43:07.451Z,94968.65
2019-05-10T10:45:39.001Z,94975.30
2019-05-10T10:48:11.215Z,94974.04
2019-05-10T10:53:09.961Z,94971.53
2019-05-10T10:55:40.265Z,94971.92
2019-05-10T10:58:07.349Z,94967.71
2019-05-10T11:00:38.934Z,94974.66
2019-05-10T11:03:04.333Z,94977.27
2019-05-10T11:08:06.925Z,94990.05
2019-05-10T11:10:35.302Z,94978.53
2019-05-10T11:13:11.109Z,94980.24
2019-05-10T11:15:35.888Z,94976.20
2019-05-10T11:18:04.004Z,94978.58
2019-05-10T11:20:32.357Z,94981.64
2019-05-10T11:23:01.646Z,94985.24
2019-05-10T11:25:30.953Z,94986.56
2019-05-10T11:28:01.785Z,94990.55
2019-05-10T11:30:32.498Z,94991.23
2019-05-10T11:33:00.935Z,94988.84
2019-05-10T11:35:33.844Z,94991.56
2019-05-10T11:38:01.214Z,94981.05
2019-05-10T11:40:32.148Z,94986.84
2019-05-10T11:42:55.781Z,94991.86
2019-05-10T11:45:26.104Z,94991.02
2019-05-10T11:47:54.433Z,94992.87
2019-05-10T11:50:30.862Z,94993.30
2019-05-10T11:52:51.351Z,94999.13
2019-05-10T11:55:17.690Z,94998.94
2019-05-10T11:57:59.979Z,95003.04
2019-05-10T12:00:25.618Z,95003.22
2019-05-10T12:03:03.545Z,95003.98
2019-05-10T12:07:47.288Z,95004.89
2019-05-10T12:10:24.315Z,95005.54
2019-05-10T12:13:04.835Z,95009.47
2019-05-10T12:15:25.490Z,95016.02
2019-05-10T12:17:58.007Z,95016.00
2019-05-10T12:22:55.027Z,95015.72
2019-05-10T12:25:47.194Z,95013.53
2019-05-10T12:28:24.557Z,95020.58
2019-05-10T12:30:48.201Z,95015.76
2019-05-10T12:33:25.237Z,95014.84
2019-05-10T12:35:47.638Z,95017.09
2019-05-10T12:38:31.741Z,95024.14
2019-05-10T12:41:01.212Z,95030.87
2019-05-10T12:43:32.768Z,95024.87
2019-05-10T12:48:53.468Z,95021.88
2019-05-10T12:51:21.800Z,95025.27
2019-05-10T12:53:52.099Z,95030.62
2019-05-10T12:56:18.549Z,95032.77
2019-05-10T12:58:56.336Z,95021.90
2019-05-10T13:03:49.509Z,95022.23
2019-05-10T13:06:21.366Z,95022.09
2019-05-10T13:08:50.817Z,95028.27
2019-05-10T13:11:27.230Z,95018.72
2019-05-10T13:13:49.428Z,95014.68
2019-05-10T13:16:17.781Z,95008.92
2019-05-10T13:18:51.976Z,95007.97
2019-05-10T13:21:20.666Z,95012.62
2019-05-10T13:26:17.138Z,95004.79
2019-05-10T13:28:45.485Z,95006.88
2019-05-10T13:31:15.223Z,94994.95
2019-05-10T13:33:44.326Z,95003.59
2019-05-10T13:36:10.605Z,94999.92
2019-05-10T13:38:48.612Z,94995.31
2019-05-10T13:41:11.667Z,94992.98
2019-05-10T13:43:40.014Z,94989.25
2019-05-10T13:48:43.628Z,94984.84
2019-05-10T13:51:12.958Z,94982.95
2019-05-10T13:56:16.561Z,94992.79
2019-05-10T13:58:45.805Z,94989.30
2019-05-10T14:01:14.830Z,95002.51
2019-05-10T14:03:46.467Z,94996.02
2019-05-10T14:06:11.848Z,94992.45
2019-05-10T14:13:48.987Z,94987.70
2019-05-10T14:16:19.687Z,94989.96
2019-05-10T14:18:45.683Z,94981.00
2019-05-10T14:21:14.037Z,94987.11
2019-05-10T14:23:42.387Z,94982.44
2019-05-10T14:26:15.875Z,94980.91
2019-05-10T14:28:39.066Z,94979.06
2019-05-10T14:31:07.419Z,94976.74
2019-05-10T14:33:35.764Z,94981.21
2019-05-10T14:36:04.126Z,94981.91
2019-05-10T14:38:32.473Z,94984.75
2019-05-10T14:41:03.861Z,94985.27
2019-05-10T14:43:29.203Z,94981.84
2019-05-10T14:45:57.584Z,94992.97
2019-05-10T14:48:29.130Z,94996.28
2019-05-10T14:50:54.277Z,94990.44
2019-05-10T14:53:25.506Z,94990.75
2019-05-10T14:55:50.977Z,94991.38
2019-05-10T14:58:19.327Z,94987.84
2019-05-10T15:00:47.677Z,94989.80
2019-05-10T15:03:16.033Z,94988.92
2019-05-10T15:05:48.949Z,94982.90
2019-05-10T15:08:12.801Z,94982.72
2019-05-10T15:13:19.666Z,94987.87
2019-05-10T15:15:43.911Z,94981.86
2019-05-10T15:18:12.277Z,94991.20
2019-05-10T15:20:41.572Z,94994.75
2019-05-10T15:23:10.060Z,94999.17
2019-05-10T15:25:38.391Z,95000.89
2019-05-10T15:28:07.779Z,95004.22
2019-05-10T15:30:39.438Z,95010.86
2019-05-10T15:33:04.497Z,95013.45
2019-05-10T15:35:33.793Z,95021.73
2019-05-10T15:40:38.770Z,95017.88
2019-05-10T15:43:10.155Z,95020.08
2019-05-10T15:48:07.626Z,95011.86
2019-05-10T15:50:38.568Z,95010.53
2019-05-10T15:53:04.402Z,95008.51
2019-05-10T15:58:06.918Z,95002.02
2019-05-10T16:00:39.631Z,95007.18
2019-05-10T16:03:03.647Z,94999.05
2019-05-10T16:05:42.933Z,95003.56
2019-05-10T16:08:01.321Z,95003.52
2019-05-10T16:13:03.975Z,94991.02
2019-05-10T16:15:33.408Z,94988.80
2019-05-10T16:18:01.867Z,94988.58
2019-05-10T16:20:31.707Z,94994.80
2019-05-10T16:25:41.561Z,95002.61
2019-05-10T16:30:36.658Z,94999.63
2019-05-10T16:33:09.609Z,94999.28
2019-05-10T16:35:38.861Z,95003.41
2019-05-10T16:38:05.105Z,95004.02
2019-05-10T16:40:33.526Z,95012.92
2019-05-10T16:43:06.656Z,95012.99
2019-05-10T16:45:37.975Z,95012.48
2019-05-10T16:48:08.305Z,95012.73
2019-05-10T16:50:37.543Z,95010.13
2019-05-10T16:53:08.112Z,95014.59
2019-05-10T16:55:35.456Z,95012.84
2019-05-10T17:00:40.620Z,95014.70
2019-05-10T17:03:07.222Z,95012.20
2019-05-10T17:05:35.563Z,95015.81
2019-05-10T17:08:03.924Z,95018.62
2019-05-10T17:10:33.103Z,95020.06
2019-05-10T17:13:04.941Z,95016.86
2019-05-10T17:15:33.972Z,95015.20
2019-05-10T17:20:32.588Z,95014.97
2019-05-10T17:23:08.873Z,95012.70
2019-05-10T17:25:29.334Z,95012.05
2019-05-10T17:27:59.870Z,95007.15
2019-05-10T17:30:27.960Z,95015.85
2019-05-10T17:32:57.703Z,95013.23
2019-05-10T17:35:22.804Z,95009.02
2019-05-10T17:37:53.064Z,95009.01
2019-05-10T17:40:19.652Z,95005.89
2019-05-10T17:42:51.485Z,95010.94
2019-05-10T17:45:18.897Z,95001.74
2019-05-10T17:47:45.712Z,95001.94
2019-05-10T17:50:14.085Z,94999.78
2019-05-10T17:55:18.463Z,94998.95
2019-05-10T17:57:48.563Z,95001.07
2019-05-10T18:00:14.455Z,95008.48
2019-05-10T18:02:42.795Z,95013.59
2019-05-10T18:05:11.160Z,95010.91
2019-05-10T18:07:39.505Z,95001.05
2019-05-10T18:10:08.730Z,95001.37
2019-05-10T18:12:37.092Z,95001.59
2019-05-10T18:15:06.844Z,95000.05
2019-05-10T18:17:36.224Z,95004.34
2019-05-10T18:20:04.596Z,95010.10
2019-05-10T18:22:41.854Z,95017.83
2019-05-10T18:25:01.289Z,95024.42
2019-05-10T18:27:29.636Z,95039.16
2019-05-10T18:29:58.004Z,95037.96
2019-05-10T18:32:29.205Z,95040.62
2019-05-10T18:34:54.689Z,95040.05
2019-05-10T18:37:23.403Z,95042.44
2019-05-10T18:42:27.718Z,95050.30
2019-05-10T18:44:55.896Z,95049.84
2019-05-10T18:47:26.141Z,95052.20
2019-05-10T18:49:54.505Z,95057.46
2019-05-10T18:54:57.057Z,95052.85
2019-05-10T18:57:25.412Z,95051.92
2019-05-10T18:59:53.769Z,95054.27
2019-05-10T19:02:22.409Z,95063.92
2019-05-10T19:04:54.082Z,95066.00
2019-05-10T19:09:53.449Z,95065.89
2019-05-10T19:12:23.172Z,95069.87
2019-05-10T19:14:50.167Z,95069.48
2019-05-10T19:17:18.494Z,95072.41
2019-05-10T19:19:46.845Z,95071.02
2019-05-10T19:22:16.093Z,95079.42
2019-05-10T19:24:44.444Z,95073.77
2019-05-10T19:27:12.789Z,95073.25
2019-05-10T19:29:45.634Z,95069.50
2019-05-10T19:32:17.306Z,95070.77
2019-05-10T19:34:37.816Z,95071.55
2019-05-10T19:37:06.175Z,95076.26
2019-05-10T19:39:34.515Z,95074.05
2019-05-10T19:42:03.883Z,95069.77
2019-05-10T19:44:34.778Z,95071.98
2019-05-10T19:46:59.585Z,95077.44
2019-05-10T19:49:27.949Z,95072.88
2019-05-10T19:51:56.294Z,95072.43
2019-05-10T19:54:31.214Z,95070.77
2019-05-10T19:57:01.530Z,95072.64
2019-05-10T19:59:29.910Z,95073.88
2019-05-10T20:01:58.438Z,95075.03
2019-05-10T20:04:26.680Z,95075.17
2019-05-10T20:06:55.139Z,95081.36
2019-05-10T20:09:23.469Z,95079.05
2019-05-10T20:11:51.818Z,95085.74
2019-05-10T20:14:20.184Z,95089.22
2019-05-10T20:16:52.841Z,95086.95
2019-05-10T20:19:20.337Z,95088.95
2019-05-10T20:21:48.735Z,95083.83
2019-05-10T20:24:17.097Z,95081.72
2019-05-10T20:26:45.484Z,95079.88
2019-05-10T20:29:13.953Z,95070.34
2019-05-10T20:31:42.698Z,95067.80
2019-05-10T20:34:11.080Z,95064.17
2019-05-10T20:36:39.655Z,95067.98
2019-05-10T20:39:09.979Z,95057.02
2019-05-10T20:41:38.489Z,95058.97
2019-05-10T20:44:06.861Z,95049.34
2019-05-10T20:46:35.226Z,95051.48
2019-05-10T20:49:03.804Z,95047.16
2019-05-10T20:51:32.177Z,95040.42
2019-05-10T20:54:00.520Z,95034.30
2019-05-10T20:56:28.889Z,95036.44
2019-05-10T20:58:57.224Z,95031.92
2019-05-10T21:01:25.576Z,95028.38
2019-05-10T21:03:55.221Z,95031.87
2019-05-10T21:06:24.386Z,95023.42
2019-05-10T21:08:53.273Z,95024.61
2019-05-10T21:11:24.715Z,95033.19
2019-05-10T21:16:32.338Z,95036.55
2019-05-10T21:19:00.668Z,95037.61
2019-05-10T21:21:29.945Z,95035.75
2019-05-10T21:23:58.315Z,95027.88
2019-05-10T21:26:26.681Z,95028.42
2019-05-10T21:31:29.324Z,95024.80
2019-05-10T21:36:31.952Z,95027.52
2019-05-10T21:39:00.311Z,95026.73
2019-05-10T21:41:28.718Z,95031.82
2019-05-10T21:43:57.035Z,95025.95
2019-05-10T21:46:25.415Z,95026.48
2019-05-10T21:48:53.812Z,95023.26
2019-05-10T21:51:22.210Z,95020.42
2019-05-10T21:53:50.620Z,95021.47
2019-05-10T21:56:18.983Z,95018.05
2019-05-10T21:58:47.381Z,95020.12
2019-05-10T22:01:15.713Z,95025.55
2019-05-10T22:03:44.120Z,95031.63
2019-05-10T22:06:12.499Z,95031.47
2019-05-10T22:08:48.809Z,95023.37
2019-05-10T22:11:09.302Z,95027.98
2019-05-10T22:13:38.670Z,95024.81
2019-05-10T22:18:43.293Z,95018.41
2019-05-10T22:21:11.664Z,95017.48
2019-05-10T22:23:41.069Z,95017.03
2019-05-10T22:26:09.453Z,95016.16
2019-05-10T22:28:37.841Z,95022.13
2019-05-10T22:31:06.285Z,95016.25
2019-05-10T22:33:34.730Z,95013.90
2019-05-10T22:36:03.286Z,95007.11
2019-05-10T22:38:31.670Z,95008.22
2019-05-10T22:41:00.054Z,95013.39
2019-05-10T22:46:02.782Z,95014.89
2019-05-10T22:48:31.201Z,95012.10
2019-05-10T22:50:59.583Z,95008.20
2019-05-10T22:53:27.971Z,95000.46
2019-05-10T22:55:56.389Z,94994.77
2019-05-10T22:58:24.783Z,94994.58
2019-05-10T23:00:53.288Z,94989.72
2019-05-10T23:03:24.309Z,94993.63
2019-05-10T23:05:50.068Z,94995.19
2019-05-10T23:08:18.447Z,94996.36
2019-05-10T23:10:46.857Z,95005.95
2019-05-10T23:13:15.232Z,95012.11
2019-05-10T23:15:43.631Z,95017.91
2019-05-10T23:18:12.072Z,95014.31
2019-05-10T23:20:41.339Z,95013.06
2019-05-10T23:23:09.760Z,95015.98
2019-05-10T23:25:38.200Z,95021.73
2019-05-10T23:30:40.875Z,95017.73
2019-05-10T23:33:09.299Z,95019.17
2019-05-10T23:35:37.673Z,95017.80
2019-05-10T23:38:06.080Z,95011.92
2019-05-10T23:40:35.468Z,95007.23
2019-05-10T23:43:03.945Z,95004.44
2019-05-10T23:45:32.292Z,95002.59
2019-05-10T23:48:00.675Z,95002.83
2019-05-10T23:53:04.239Z,95004.73
2019-05-10T23:55:32.615Z,94997.32
